sensor_id;sensor_type;location;lat;lon;timestamp;temperature;humidity
15879;DHT22;61999;51.514;14.614;2023-04-25T00:02:18;4.00;57.40
15879;DHT22;61999;51.514;14.614;2023-04-25T00:04:46;3.80;57.60
15879;DHT22;61999;51.514;14.614;2023-04-25T00:07:15;3.90;57.40
15879;DHT22;61999;51.514;14.614;2023-04-25T00:09:45;3.90;57.60
15879;DHT22;61999;51.514;14.614;2023-04-25T00:12:13;3.70;57.80
15879;DHT22;61999;51.514;14.614;2023-04-25T00:14:42;3.60;57.80
15879;DHT22;61999;51.514;14.614;2023-04-25T00:17:11;3.70;57.90
15879;DHT22;61999;51.514;14.614;2023-04-25T00:19:39;3.80;57.70
15879;DHT22;61999;51.514;14.614;2023-04-25T00:22:07;3.80;57.50
15879;DHT22;61999;51.514;14.614;2023-04-25T00:24:35;3.90;57.20
15879;DHT22;61999;51.514;14.614;2023-04-25T00:27:03;4.00;57.00
15879;DHT22;61999;51.514;14.614;2023-04-25T00:29:31;4.00;56.80
15879;DHT22;61999;51.514;14.614;2023-04-25T00:31:59;3.90;57.00
15879;DHT22;61999;51.514;14.614;2023-04-25T00:34:29;3.80;57.40
15879;DHT22;61999;51.514;14.614;2023-04-25T00:36:57;3.70;57.30
15879;DHT22;61999;51.514;14.614;2023-04-25T00:39:25;3.90;57.30
15879;DHT22;61999;51.514;14.614;2023-04-25T00:41:54;3.80;57.40
15879;DHT22;61999;51.514;14.614;2023-04-25T00:44:22;3.80;57.40
15879;DHT22;61999;51.514;14.614;2023-04-25T00:46:52;3.80;57.10
15879;DHT22;61999;51.514;14.614;2023-04-25T00:49:21;3.90;57.00
15879;DHT22;61999;51.514;14.614;2023-04-25T00:51:50;4.10;56.70
15879;DHT22;61999;51.514;14.614;2023-04-25T00:54:18;4.00;56.80
15879;DHT22;61999;51.514;14.614;2023-04-25T00:56:46;3.90;56.80
15879;DHT22;61999;51.514;14.614;2023-04-25T00:59:15;3.90;57.00
15879;DHT22;61999;51.514;14.614;2023-04-25T01:01:43;3.90;57.00
15879;DHT22;61999;51.514;14.614;2023-04-25T01:04:13;3.80;57.00
15879;DHT22;61999;51.514;14.614;2023-04-25T01:06:41;3.80;57.30
15879;DHT22;61999;51.514;14.614;2023-04-25T01:09:10;3.70;57.20
15879;DHT22;61999;51.514;14.614;2023-04-25T01:11:39;3.70;57.30
15879;DHT22;61999;51.514;14.614;2023-04-25T01:14:07;3.80;57.00
15879;DHT22;61999;51.514;14.614;2023-04-25T01:16:35;3.90;56.70
15879;DHT22;61999;51.514;14.614;2023-04-25T01:19:05;3.90;56.60
15879;DHT22;61999;51.514;14.614;2023-04-25T01:21:39;3.80;56.90
15879;DHT22;61999;51.514;14.614;2023-04-25T01:24:07;3.70;57.20
15879;DHT22;61999;51.514;14.614;2023-04-25T01:26:36;3.60;57.30
15879;DHT22;61999;51.514;14.614;2023-04-25T01:29:04;3.50;57.40
15879;DHT22;61999;51.514;14.614;2023-04-25T01:31:33;3.50;57.40
15879;DHT22;61999;51.514;14.614;2023-04-25T01:34:02;3.40;57.50
15879;DHT22;61999;51.514;14.614;2023-04-25T01:36:30;3.30;57.90
15879;DHT22;61999;51.514;14.614;2023-04-25T01:39:00;3.30;57.90
15879;DHT22;61999;51.514;14.614;2023-04-25T01:41:29;3.30;57.70
15879;DHT22;61999;51.514;14.614;2023-04-25T01:43:57;3.30;57.70
15879;DHT22;61999;51.514;14.614;2023-04-25T01:46:25;3.30;57.90
15879;DHT22;61999;51.514;14.614;2023-04-25T01:48:54;3.20;57.80
15879;DHT22;61999;51.514;14.614;2023-04-25T01:51:22;3.20;57.90
15879;DHT22;61999;51.514;14.614;2023-04-25T01:53:50;3.10;58.00
15879;DHT22;61999;51.514;14.614;2023-04-25T01:56:20;3.10;58.20
15879;DHT22;61999;51.514;14.614;2023-04-25T01:58:48;3.10;58.10
15879;DHT22;61999;51.514;14.614;2023-04-25T02:01:16;3.10;58.40
15879;DHT22;61999;51.514;14.614;2023-04-25T02:03:44;3.10;58.40
15879;DHT22;61999;51.514;14.614;2023-04-25T02:06:12;3.20;58.30
15879;DHT22;61999;51.514;14.614;2023-04-25T02:08:40;3.30;57.70
15879;DHT22;61999;51.514;14.614;2023-04-25T02:11:08;3.20;57.70
15879;DHT22;61999;51.514;14.614;2023-04-25T02:13:38;3.10;57.80
15879;DHT22;61999;51.514;14.614;2023-04-25T02:16:06;3.20;57.80
15879;DHT22;61999;51.514;14.614;2023-04-25T02:18:34;3.10;57.80
15879;DHT22;61999;51.514;14.614;2023-04-25T02:21:03;3.10;58.00
15879;DHT22;61999;51.514;14.614;2023-04-25T02:23:31;3.00;58.10
15879;DHT22;61999;51.514;14.614;2023-04-25T02:25:59;2.90;58.20
15879;DHT22;61999;51.514;14.614;2023-04-25T02:28:27;2.80;58.20
15879;DHT22;61999;51.514;14.614;2023-04-25T02:30:57;2.60;58.20
15879;DHT22;61999;51.514;14.614;2023-04-25T02:33:25;2.60;58.70
15879;DHT22;61999;51.514;14.614;2023-04-25T02:35:53;2.60;58.70
15879;DHT22;61999;51.514;14.614;2023-04-25T02:38:20;2.70;58.70
15879;DHT22;61999;51.514;14.614;2023-04-25T02:40:48;2.70;58.50
15879;DHT22;61999;51.514;14.614;2023-04-25T02:43:17;2.80;58.40
15879;DHT22;61999;51.514;14.614;2023-04-25T02:45:45;2.80;58.30
15879;DHT22;61999;51.514;14.614;2023-04-25T02:48:15;2.90;58.30
15879;DHT22;61999;51.514;14.614;2023-04-25T02:50:43;3.00;58.10
15879;DHT22;61999;51.514;14.614;2023-04-25T02:53:12;2.80;58.20
15879;DHT22;61999;51.514;14.614;2023-04-25T02:55:40;2.70;58.30
15879;DHT22;61999;51.514;14.614;2023-04-25T02:58:08;2.60;58.50
15879;DHT22;61999;51.514;14.614;2023-04-25T03:00:36;2.40;58.70
15879;DHT22;61999;51.514;14.614;2023-04-25T03:03:04;2.40;59.30
15879;DHT22;61999;51.514;14.614;2023-04-25T03:05:34;2.40;59.20
15879;DHT22;61999;51.514;14.614;2023-04-25T03:08:02;2.50;59.60
15879;DHT22;61999;51.514;14.614;2023-04-25T03:10:30;2.60;59.40
15879;DHT22;61999;51.514;14.614;2023-04-25T03:12:58;2.60;59.20
15879;DHT22;61999;51.514;14.614;2023-04-25T03:15:26;2.70;59.00
15879;DHT22;61999;51.514;14.614;2023-04-25T03:17:54;2.90;58.80
15879;DHT22;61999;51.514;14.614;2023-04-25T03:20:22;3.10;58.30
15879;DHT22;61999;51.514;14.614;2023-04-25T03:22:52;3.20;58.00
15879;DHT22;61999;51.514;14.614;2023-04-25T03:25:20;3.10;57.80
15879;DHT22;61999;51.514;14.614;2023-04-25T03:27:48;3.10;58.00
15879;DHT22;61999;51.514;14.614;2023-04-25T03:30:16;3.00;58.20
15879;DHT22;61999;51.514;14.614;2023-04-25T03:32:44;3.10;58.90
15879;DHT22;61999;51.514;14.614;2023-04-25T03:35:12;3.10;58.00
15879;DHT22;61999;51.514;14.614;2023-04-25T03:37:40;3.20;57.80
15879;DHT22;61999;51.514;14.614;2023-04-25T03:40:13;3.00;57.60
15879;DHT22;61999;51.514;14.614;2023-04-25T03:42:41;2.80;57.70
15879;DHT22;61999;51.514;14.614;2023-04-25T03:45:10;2.70;58.00
15879;DHT22;61999;51.514;14.614;2023-04-25T03:47:38;2.60;58.40
15879;DHT22;61999;51.514;14.614;2023-04-25T03:50:06;2.50;58.60
15879;DHT22;61999;51.514;14.614;2023-04-25T03:52:35;2.50;59.00
15879;DHT22;61999;51.514;14.614;2023-04-25T03:55:03;2.60;59.00
15879;DHT22;61999;51.514;14.614;2023-04-25T03:57:33;2.60;58.80
15879;DHT22;61999;51.514;14.614;2023-04-25T04:00:01;2.50;58.50
15879;DHT22;61999;51.514;14.614;2023-04-25T04:02:31;2.40;58.30
15879;DHT22;61999;51.514;14.614;2023-04-25T04:05:01;2.40;58.40
15879;DHT22;61999;51.514;14.614;2023-04-25T04:07:29;2.30;58.50
15879;DHT22;61999;51.514;14.614;2023-04-25T04:09:59;2.40;59.50
15879;DHT22;61999;51.514;14.614;2023-04-25T04:12:27;2.60;59.00
15879;DHT22;61999;51.514;14.614;2023-04-25T04:14:56;2.70;58.80
15879;DHT22;61999;51.514;14.614;2023-04-25T04:17:24;2.60;58.40
15879;DHT22;61999;51.514;14.614;2023-04-25T04:19:52;2.50;58.60
15879;DHT22;61999;51.514;14.614;2023-04-25T04:22:20;2.60;59.20
15879;DHT22;61999;51.514;14.614;2023-04-25T04:24:48;2.80;58.90
15879;DHT22;61999;51.514;14.614;2023-04-25T04:27:17;2.90;58.70
15879;DHT22;61999;51.514;14.614;2023-04-25T04:29:46;3.00;58.40
15879;DHT22;61999;51.514;14.614;2023-04-25T04:32:16;3.00;58.50
15879;DHT22;61999;51.514;14.614;2023-04-25T04:34:44;3.10;58.40
15879;DHT22;61999;51.514;14.614;2023-04-25T04:37:13;3.10;58.60
15879;DHT22;61999;51.514;14.614;2023-04-25T04:39:42;3.00;58.60
15879;DHT22;61999;51.514;14.614;2023-04-25T04:42:10;3.00;58.80
15879;DHT22;61999;51.514;14.614;2023-04-25T04:44:39;3.00;59.00
15879;DHT22;61999;51.514;14.614;2023-04-25T04:47:07;3.00;59.00
15879;DHT22;61999;51.514;14.614;2023-04-25T04:49:36;3.00;59.20
15879;DHT22;61999;51.514;14.614;2023-04-25T04:52:04;3.20;59.40
15879;DHT22;61999;51.514;14.614;2023-04-25T04:54:32;3.00;59.60
15879;DHT22;61999;51.514;14.614;2023-04-25T04:57:02;2.90;60.20
15879;DHT22;61999;51.514;14.614;2023-04-25T04:59:30;2.90;60.60
15879;DHT22;61999;51.514;14.614;2023-04-25T05:01:57;2.80;60.70
15879;DHT22;61999;51.514;14.614;2023-04-25T05:04:26;2.70;61.40
15879;DHT22;61999;51.514;14.614;2023-04-25T05:06:55;2.70;61.50
15879;DHT22;61999;51.514;14.614;2023-04-25T05:09:23;2.80;61.30
15879;DHT22;61999;51.514;14.614;2023-04-25T05:11:52;2.70;61.60
15879;DHT22;61999;51.514;14.614;2023-04-25T05:14:20;2.80;61.60
15879;DHT22;61999;51.514;14.614;2023-04-25T05:16:49;2.90;61.50
15879;DHT22;61999;51.514;14.614;2023-04-25T05:19:17;2.80;61.70
15879;DHT22;61999;51.514;14.614;2023-04-25T05:21:45;2.70;62.00
15879;DHT22;61999;51.514;14.614;2023-04-25T05:24:14;2.50;62.20
15879;DHT22;61999;51.514;14.614;2023-04-25T05:26:42;2.50;62.90
15879;DHT22;61999;51.514;14.614;2023-04-25T05:29:10;2.80;62.30
15879;DHT22;61999;51.514;14.614;2023-04-25T05:31:38;2.90;61.70
15879;DHT22;61999;51.514;14.614;2023-04-25T05:34:06;2.90;61.50
15879;DHT22;61999;51.514;14.614;2023-04-25T05:36:34;2.90;61.80
15879;DHT22;61999;51.514;14.614;2023-04-25T05:39:02;2.90;61.90
15879;DHT22;61999;51.514;14.614;2023-04-25T05:41:32;2.80;61.90
15879;DHT22;61999;51.514;14.614;2023-04-25T05:44:00;2.90;62.00
15879;DHT22;61999;51.514;14.614;2023-04-25T05:46:29;2.80;62.30
15879;DHT22;61999;51.514;14.614;2023-04-25T05:48:56;2.60;62.40
15879;DHT22;61999;51.514;14.614;2023-04-25T05:51:25;2.90;61.70
15879;DHT22;61999;51.514;14.614;2023-04-25T05:53:54;2.70;61.70
15879;DHT22;61999;51.514;14.614;2023-04-25T05:56:22;2.70;61.90
15879;DHT22;61999;51.514;14.614;2023-04-25T05:58:51;2.90;62.90
15879;DHT22;61999;51.514;14.614;2023-04-25T06:01:20;2.90;62.60
15879;DHT22;61999;51.514;14.614;2023-04-25T06:03:48;3.00;61.20
15879;DHT22;61999;51.514;14.614;2023-04-25T06:06:18;3.10;61.10
15879;DHT22;61999;51.514;14.614;2023-04-25T06:08:45;3.20;60.70
15879;DHT22;61999;51.514;14.614;2023-04-25T06:11:13;3.30;60.20
15879;DHT22;61999;51.514;14.614;2023-04-25T06:13:41;3.60;59.10
15879;DHT22;61999;51.514;14.614;2023-04-25T06:16:10;3.70;58.50
15879;DHT22;61999;51.514;14.614;2023-04-25T06:18:38;3.70;58.10
15879;DHT22;61999;51.514;14.614;2023-04-25T06:21:06;3.80;58.30
15879;DHT22;61999;51.514;14.614;2023-04-25T06:23:34;3.60;58.60
15879;DHT22;61999;51.514;14.614;2023-04-25T06:26:02;3.80;57.60
15879;DHT22;61999;51.514;14.614;2023-04-25T06:28:30;3.80;57.80
15879;DHT22;61999;51.514;14.614;2023-04-25T06:30:58;3.70;57.70
15879;DHT22;61999;51.514;14.614;2023-04-25T06:33:28;3.50;58.30
15879;DHT22;61999;51.514;14.614;2023-04-25T06:35:56;3.30;58.70
15879;DHT22;61999;51.514;14.614;2023-04-25T06:38:24;3.50;58.50
15879;DHT22;61999;51.514;14.614;2023-04-25T06:40:51;3.30;59.70
15879;DHT22;61999;51.514;14.614;2023-04-25T06:43:19;3.30;59.30
15879;DHT22;61999;51.514;14.614;2023-04-25T06:45:47;3.50;58.50
15879;DHT22;61999;51.514;14.614;2023-04-25T06:48:15;3.70;57.90
15879;DHT22;61999;51.514;14.614;2023-04-25T06:50:45;3.70;58.10
15879;DHT22;61999;51.514;14.614;2023-04-25T06:53:13;3.80;57.60
15879;DHT22;61999;51.514;14.614;2023-04-25T06:55:41;4.00;57.40
15879;DHT22;61999;51.514;14.614;2023-04-25T06:58:09;4.00;57.60
15879;DHT22;61999;51.514;14.614;2023-04-25T07:00:37;4.00;57.50
15879;DHT22;61999;51.514;14.614;2023-04-25T07:03:05;4.20;56.90
15879;DHT22;61999;51.514;14.614;2023-04-25T07:05:33;4.50;56.00
15879;DHT22;61999;51.514;14.614;2023-04-25T07:08:02;4.30;56.90
15879;DHT22;61999;51.514;14.614;2023-04-25T07:10:30;4.40;56.50
15879;DHT22;61999;51.514;14.614;2023-04-25T07:12:58;4.50;56.70
15879;DHT22;61999;51.514;14.614;2023-04-25T07:15:26;4.90;55.00
15879;DHT22;61999;51.514;14.614;2023-04-25T07:17:54;4.80;55.30
15879;DHT22;61999;51.514;14.614;2023-04-25T07:20:22;4.90;54.90
15879;DHT22;61999;51.514;14.614;2023-04-25T07:22:50;4.80;55.30
15879;DHT22;61999;51.514;14.614;2023-04-25T07:25:20;4.80;55.20
15879;DHT22;61999;51.514;14.614;2023-04-25T07:27:48;5.00;54.60
15879;DHT22;61999;51.514;14.614;2023-04-25T07:30:16;5.00;54.20
15879;DHT22;61999;51.514;14.614;2023-04-25T07:32:44;5.20;54.40
15879;DHT22;61999;51.514;14.614;2023-04-25T07:35:13;5.40;53.40
15879;DHT22;61999;51.514;14.614;2023-04-25T07:37:41;5.50;53.30
15879;DHT22;61999;51.514;14.614;2023-04-25T07:40:09;5.30;54.70
15879;DHT22;61999;51.514;14.614;2023-04-25T07:42:39;5.50;54.10
15879;DHT22;61999;51.514;14.614;2023-04-25T07:45:07;5.70;52.80
15879;DHT22;61999;51.514;14.614;2023-04-25T07:47:36;5.80;51.60
15879;DHT22;61999;51.514;14.614;2023-04-25T07:50:05;5.70;51.80
15879;DHT22;61999;51.514;14.614;2023-04-25T07:52:34;5.80;52.00
15879;DHT22;61999;51.514;14.614;2023-04-25T07:55:02;5.90;51.60
15879;DHT22;61999;51.514;14.614;2023-04-25T07:57:31;5.90;51.40
15879;DHT22;61999;51.514;14.614;2023-04-25T08:00:00;5.90;52.00
15879;DHT22;61999;51.514;14.614;2023-04-25T08:02:28;6.00;51.50
15879;DHT22;61999;51.514;14.614;2023-04-25T08:04:56;6.10;51.70
15879;DHT22;61999;51.514;14.614;2023-04-25T08:07:24;6.20;51.20
15879;DHT22;61999;51.514;14.614;2023-04-25T08:09:53;6.30;49.90
15879;DHT22;61999;51.514;14.614;2023-04-25T08:12:22;6.20;50.60
15879;DHT22;61999;51.514;14.614;2023-04-25T08:14:50;6.10;50.60
15879;DHT22;61999;51.514;14.614;2023-04-25T08:17:19;6.20;50.50
15879;DHT22;61999;51.514;14.614;2023-04-25T08:19:47;6.20;50.30
15879;DHT22;61999;51.514;14.614;2023-04-25T08:22:15;6.20;50.50
15879;DHT22;61999;51.514;14.614;2023-04-25T08:24:43;6.40;50.10
15879;DHT22;61999;51.514;14.614;2023-04-25T08:27:11;6.30;50.70
15879;DHT22;61999;51.514;14.614;2023-04-25T08:29:39;6.50;49.90
15879;DHT22;61999;51.514;14.614;2023-04-25T08:32:07;6.60;49.70
15879;DHT22;61999;51.514;14.614;2023-04-25T08:34:37;6.80;50.20
15879;DHT22;61999;51.514;14.614;2023-04-25T08:37:09;7.10;49.20
15879;DHT22;61999;51.514;14.614;2023-04-25T08:39:37;7.40;48.00
15879;DHT22;61999;51.514;14.614;2023-04-25T08:42:06;7.40;47.00
15879;DHT22;61999;51.514;14.614;2023-04-25T08:44:35;7.30;46.20
15879;DHT22;61999;51.514;14.614;2023-04-25T08:47:04;7.10;46.80
15879;DHT22;61999;51.514;14.614;2023-04-25T08:49:33;6.90;47.50
15879;DHT22;61999;51.514;14.614;2023-04-25T08:52:04;6.80;47.10
15879;DHT22;61999;51.514;14.614;2023-04-25T08:54:33;6.60;47.40
15879;DHT22;61999;51.514;14.614;2023-04-25T08:57:04;6.40;48.40
15879;DHT22;61999;51.514;14.614;2023-04-25T08:59:33;6.40;48.20
15879;DHT22;61999;51.514;14.614;2023-04-25T09:02:02;6.40;48.80
15879;DHT22;61999;51.514;14.614;2023-04-25T09:04:31;6.40;49.10
15879;DHT22;61999;51.514;14.614;2023-04-25T09:06:59;6.50;49.10
15879;DHT22;61999;51.514;14.614;2023-04-25T09:09:29;6.70;48.90
15879;DHT22;61999;51.514;14.614;2023-04-25T09:11:57;6.80;48.40
15879;DHT22;61999;51.514;14.614;2023-04-25T09:14:26;6.90;48.50
15879;DHT22;61999;51.514;14.614;2023-04-25T09:16:58;7.10;47.20
15879;DHT22;61999;51.514;14.614;2023-04-25T09:19:29;7.00;48.00
15879;DHT22;61999;51.514;14.614;2023-04-25T09:22:03;7.10;47.80
15879;DHT22;61999;51.514;14.614;2023-04-25T09:24:35;7.20;48.70
15879;DHT22;61999;51.514;14.614;2023-04-25T09:27:05;7.20;48.60
15879;DHT22;61999;51.514;14.614;2023-04-25T09:29:35;7.60;46.60
15879;DHT22;61999;51.514;14.614;2023-04-25T09:32:11;7.50;47.40
15879;DHT22;61999;51.514;14.614;2023-04-25T09:34:43;7.50;47.30
15879;DHT22;61999;51.514;14.614;2023-04-25T09:37:18;7.60;46.30
15879;DHT22;61999;51.514;14.614;2023-04-25T09:39:50;7.60;45.90
15879;DHT22;61999;51.514;14.614;2023-04-25T09:42:22;7.70;45.10
15879;DHT22;61999;51.514;14.614;2023-04-25T09:44:52;7.50;46.20
15879;DHT22;61999;51.514;14.614;2023-04-25T09:47:22;7.40;46.00
15879;DHT22;61999;51.514;14.614;2023-04-25T09:49:52;7.20;46.40
15879;DHT22;61999;51.514;14.614;2023-04-25T09:52:22;7.00;47.80
15879;DHT22;61999;51.514;14.614;2023-04-25T09:54:53;6.90;48.00
15879;DHT22;61999;51.514;14.614;2023-04-25T09:57:22;7.10;48.50
15879;DHT22;61999;51.514;14.614;2023-04-25T09:59:52;7.20;48.40
15879;DHT22;61999;51.514;14.614;2023-04-25T10:02:25;7.50;47.90
15879;DHT22;61999;51.514;14.614;2023-04-25T10:04:55;7.60;47.30
15879;DHT22;61999;51.514;14.614;2023-04-25T10:07:25;7.70;46.30
15879;DHT22;61999;51.514;14.614;2023-04-25T10:10:00;7.70;46.70
15879;DHT22;61999;51.514;14.614;2023-04-25T10:12:29;7.60;46.80
15879;DHT22;61999;51.514;14.614;2023-04-25T10:14:59;7.70;47.20
15879;DHT22;61999;51.514;14.614;2023-04-25T10:17:27;7.80;46.20
15879;DHT22;61999;51.514;14.614;2023-04-25T10:19:57;8.00;45.80
15879;DHT22;61999;51.514;14.614;2023-04-25T10:22:31;8.20;45.50
15879;DHT22;61999;51.514;14.614;2023-04-25T10:25:04;8.30;45.90
15879;DHT22;61999;51.514;14.614;2023-04-25T10:27:34;8.40;46.30
15879;DHT22;61999;51.514;14.614;2023-04-25T10:30:05;8.50;44.90
15879;DHT22;61999;51.514;14.614;2023-04-25T10:32:37;8.60;44.70
15879;DHT22;61999;51.514;14.614;2023-04-25T10:35:15;8.20;46.40
15879;DHT22;61999;51.514;14.614;2023-04-25T10:37:58;8.30;44.70
15879;DHT22;61999;51.514;14.614;2023-04-25T10:40:29;8.40;45.80
15879;DHT22;61999;51.514;14.614;2023-04-25T10:43:37;8.70;44.10
15879;DHT22;61999;51.514;14.614;2023-04-25T10:46:21;8.70;43.70
15879;DHT22;61999;51.514;14.614;2023-04-25T10:48:52;8.70;44.00
15879;DHT22;61999;51.514;14.614;2023-04-25T10:51:22;8.70;43.90
15879;DHT22;61999;51.514;14.614;2023-04-25T10:53:58;8.70;44.90
15879;DHT22;61999;51.514;14.614;2023-04-25T10:56:29;8.70;45.00
15879;DHT22;61999;51.514;14.614;2023-04-25T10:59:05;9.00;44.90
15879;DHT22;61999;51.514;14.614;2023-04-25T11:01:39;9.20;45.00
15879;DHT22;61999;51.514;14.614;2023-04-25T11:04:19;9.20;43.50
15879;DHT22;61999;51.514;14.614;2023-04-25T11:06:58;9.20;43.30
15879;DHT22;61999;51.514;14.614;2023-04-25T11:09:33;9.20;43.50
15879;DHT22;61999;51.514;14.614;2023-04-25T11:12:02;9.20;44.40
15879;DHT22;61999;51.514;14.614;2023-04-25T11:14:31;9.30;44.40
15879;DHT22;61999;51.514;14.614;2023-04-25T11:17:00;9.50;43.40
15879;DHT22;61999;51.514;14.614;2023-04-25T11:19:29;9.70;43.10
15879;DHT22;61999;51.514;14.614;2023-04-25T11:21:57;9.80;44.70
15879;DHT22;61999;51.514;14.614;2023-04-25T11:24:27;9.90;43.70
15879;DHT22;61999;51.514;14.614;2023-04-25T11:26:58;10.10;43.00
15879;DHT22;61999;51.514;14.614;2023-04-25T11:29:29;9.80;43.20
15879;DHT22;61999;51.514;14.614;2023-04-25T11:32:00;9.90;42.70
15879;DHT22;61999;51.514;14.614;2023-04-25T11:34:29;9.90;42.20
15879;DHT22;61999;51.514;14.614;2023-04-25T11:36:58;9.90;44.30
15879;DHT22;61999;51.514;14.614;2023-04-25T11:39:28;9.90;44.60
15879;DHT22;61999;51.514;14.614;2023-04-25T11:41:57;9.90;45.90
15879;DHT22;61999;51.514;14.614;2023-04-25T11:44:25;9.80;46.80
15879;DHT22;61999;51.514;14.614;2023-04-25T11:46:53;9.60;48.30
15879;DHT22;61999;51.514;14.614;2023-04-25T11:49:22;9.40;48.50
15879;DHT22;61999;51.514;14.614;2023-04-25T11:51:51;9.10;49.60
15879;DHT22;61999;51.514;14.614;2023-04-25T11:54:19;9.00;50.40
15879;DHT22;61999;51.514;14.614;2023-04-25T11:56:48;8.80;51.00
15879;DHT22;61999;51.514;14.614;2023-04-25T11:59:16;8.60;51.70
15879;DHT22;61999;51.514;14.614;2023-04-25T12:01:49;8.40;52.50
15879;DHT22;61999;51.514;14.614;2023-04-25T12:04:18;8.60;52.90
15879;DHT22;61999;51.514;14.614;2023-04-25T12:06:51;8.60;53.50
15879;DHT22;61999;51.514;14.614;2023-04-25T12:09:21;8.60;55.00
15879;DHT22;61999;51.514;14.614;2023-04-25T12:11:56;8.90;54.00
15879;DHT22;61999;51.514;14.614;2023-04-25T12:14:30;9.20;51.70
15879;DHT22;61999;51.514;14.614;2023-04-25T12:17:01;9.30;50.60
15879;DHT22;61999;51.514;14.614;2023-04-25T12:19:35;9.10;51.00
15879;DHT22;61999;51.514;14.614;2023-04-25T12:22:20;9.00;50.70
15879;DHT22;61999;51.514;14.614;2023-04-25T12:24:50;8.90;49.90
15879;DHT22;61999;51.514;14.614;2023-04-25T12:27:20;8.70;49.90
15879;DHT22;61999;51.514;14.614;2023-04-25T12:29:52;8.60;48.90
15879;DHT22;61999;51.514;14.614;2023-04-25T12:32:20;8.40;50.20
15879;DHT22;61999;51.514;14.614;2023-04-25T12:34:49;8.50;50.00
15879;DHT22;61999;51.514;14.614;2023-04-25T12:37:19;8.40;51.10
15879;DHT22;61999;51.514;14.614;2023-04-25T12:39:47;8.50;52.20
15879;DHT22;61999;51.514;14.614;2023-04-25T12:42:15;8.90;47.60
15879;DHT22;61999;51.514;14.614;2023-04-25T12:44:43;8.80;46.20
15879;DHT22;61999;51.514;14.614;2023-04-25T12:47:11;8.60;45.70
15879;DHT22;61999;51.514;14.614;2023-04-25T12:49:39;8.40;47.00
15879;DHT22;61999;51.514;14.614;2023-04-25T12:52:07;8.10;46.60
15879;DHT22;61999;51.514;14.614;2023-04-25T12:54:36;7.80;48.30
15879;DHT22;61999;51.514;14.614;2023-04-25T12:57:05;7.70;47.90
15879;DHT22;61999;51.514;14.614;2023-04-25T12:59:33;7.60;48.80
15879;DHT22;61999;51.514;14.614;2023-04-25T13:02:01;7.50;48.50
15879;DHT22;61999;51.514;14.614;2023-04-25T13:04:29;7.50;46.80
15879;DHT22;61999;51.514;14.614;2023-04-25T13:06:57;7.30;48.10
15879;DHT22;61999;51.514;14.614;2023-04-25T13:09:25;7.20;49.20
15879;DHT22;61999;51.514;14.614;2023-04-25T13:11:54;7.20;48.80
15879;DHT22;61999;51.514;14.614;2023-04-25T13:14:24;7.30;48.30
15879;DHT22;61999;51.514;14.614;2023-04-25T13:16:52;7.40;47.90
15879;DHT22;61999;51.514;14.614;2023-04-25T13:19:20;7.50;47.40
15879;DHT22;61999;51.514;14.614;2023-04-25T13:21:48;7.40;47.10
15879;DHT22;61999;51.514;14.614;2023-04-25T13:24:16;7.20;47.90
15879;DHT22;61999;51.514;14.614;2023-04-25T13:26:44;7.10;47.50
15879;DHT22;61999;51.514;14.614;2023-04-25T13:29:14;7.00;48.60
15879;DHT22;61999;51.514;14.614;2023-04-25T13:31:42;6.90;48.50
15879;DHT22;61999;51.514;14.614;2023-04-25T13:34:10;6.90;47.70
15879;DHT22;61999;51.514;14.614;2023-04-25T13:36:39;6.90;47.90
15879;DHT22;61999;51.514;14.614;2023-04-25T13:39:07;6.80;49.30
15879;DHT22;61999;51.514;14.614;2023-04-25T13:41:35;6.80;48.50
15879;DHT22;61999;51.514;14.614;2023-04-25T13:44:03;6.80;49.20
15879;DHT22;61999;51.514;14.614;2023-04-25T13:46:33;6.90;48.50
15879;DHT22;61999;51.514;14.614;2023-04-25T13:49:10;7.20;46.80
15879;DHT22;61999;51.514;14.614;2023-04-25T13:51:39;7.50;44.70
15879;DHT22;61999;51.514;14.614;2023-04-25T13:54:07;7.50;44.60
15879;DHT22;61999;51.514;14.614;2023-04-25T13:56:35;7.40;43.40
15879;DHT22;61999;51.514;14.614;2023-04-25T13:59:03;7.20;44.40
15879;DHT22;61999;51.514;14.614;2023-04-25T14:01:32;7.10;43.50
15879;DHT22;61999;51.514;14.614;2023-04-25T14:04:02;6.90;44.30
15879;DHT22;61999;51.514;14.614;2023-04-25T14:06:31;6.90;44.50
15879;DHT22;61999;51.514;14.614;2023-04-25T14:09:00;6.80;44.70
15879;DHT22;61999;51.514;14.614;2023-04-25T14:11:28;6.80;44.40
15879;DHT22;61999;51.514;14.614;2023-04-25T14:13:56;6.70;45.40
15879;DHT22;61999;51.514;14.614;2023-04-25T14:16:24;6.50;46.40
15879;DHT22;61999;51.514;14.614;2023-04-25T14:18:53;6.70;45.50
15879;DHT22;61999;51.514;14.614;2023-04-25T14:21:22;6.70;45.50
15879;DHT22;61999;51.514;14.614;2023-04-25T14:23:50;6.60;46.50
15879;DHT22;61999;51.514;14.614;2023-04-25T14:26:18;6.60;46.10
15879;DHT22;61999;51.514;14.614;2023-04-25T14:28:46;6.70;45.80
15879;DHT22;61999;51.514;14.614;2023-04-25T14:31:14;6.80;45.40
15879;DHT22;61999;51.514;14.614;2023-04-25T14:33:42;6.90;45.10
15879;DHT22;61999;51.514;14.614;2023-04-25T14:36:11;6.80;46.30
15879;DHT22;61999;51.514;14.614;2023-04-25T14:38:39;6.90;45.90
15879;DHT22;61999;51.514;14.614;2023-04-25T14:41:07;7.20;44.50
15879;DHT22;61999;51.514;14.614;2023-04-25T14:43:35;7.10;44.90
15879;DHT22;61999;51.514;14.614;2023-04-25T14:46:03;7.20;44.10
15879;DHT22;61999;51.514;14.614;2023-04-25T14:48:31;7.20;44.40
15879;DHT22;61999;51.514;14.614;2023-04-25T14:50:59;6.90;45.40
15879;DHT22;61999;51.514;14.614;2023-04-25T14:53:29;6.80;45.10
15879;DHT22;61999;51.514;14.614;2023-04-25T14:55:57;7.10;44.60
15879;DHT22;61999;51.514;14.614;2023-04-25T14:58:25;7.10;44.60
15879;DHT22;61999;51.514;14.614;2023-04-25T15:00:53;7.00;45.10
15879;DHT22;61999;51.514;14.614;2023-04-25T15:03:21;6.90;45.70
15879;DHT22;61999;51.514;14.614;2023-04-25T15:05:49;6.90;46.00
15879;DHT22;61999;51.514;14.614;2023-04-25T15:08:17;7.20;43.90
15879;DHT22;61999;51.514;14.614;2023-04-25T15:10:47;7.10;44.80
15879;DHT22;61999;51.514;14.614;2023-04-25T15:13:15;7.10;44.60
15879;DHT22;61999;51.514;14.614;2023-04-25T15:15:43;7.10;44.60
15879;DHT22;61999;51.514;14.614;2023-04-25T15:18:11;7.40;43.50
15879;DHT22;61999;51.514;14.614;2023-04-25T15:20:39;7.50;42.90
15879;DHT22;61999;51.514;14.614;2023-04-25T15:23:07;7.40;43.40
15879;DHT22;61999;51.514;14.614;2023-04-25T15:25:35;7.60;42.00
15879;DHT22;61999;51.514;14.614;2023-04-25T15:28:04;7.70;41.30
15879;DHT22;61999;51.514;14.614;2023-04-25T15:30:32;7.80;39.20
15879;DHT22;61999;51.514;14.614;2023-04-25T15:33:00;7.70;40.00
15879;DHT22;61999;51.514;14.614;2023-04-25T15:35:29;7.60;40.30
15879;DHT22;61999;51.514;14.614;2023-04-25T15:37:57;7.60;39.50
15879;DHT22;61999;51.514;14.614;2023-04-25T15:40:25;7.60;40.90
15879;DHT22;61999;51.514;14.614;2023-04-25T15:42:53;7.60;40.60